Terminal Aerodrome Forecast
Issued by NWS

Home | Current Version | Previous Version | Text Only | Print | Product List | Glossary On
Versions: 1 2 3 4 5 6 7 8 9 10 11 12 13 14 15 16 17 18 19 20 21 22 23 24 25 26 27 28 29 30
000
FTUS46 KLOX 190800 AAA
TAFLAX
TAF AMD
KLAX 190839Z 1909/2012 VRB03KT P6SM SCT025
     FM192000 25007KT P6SM SCT025 BKN080
     FM200600 VRB03KT P6SM SCT025 BKN050
     FM200900 VRB03KT 4SM BR SCT010 BKN050=

USA.gov is the U.S. government's official web portal to all federal, state and local government web resources and services.